createdAt,value
2022-10-07T00:00:56.449Z,13.77
2022-10-07T00:03:26.241Z,13.65
2022-10-07T00:06:06.091Z,13.60
2022-10-07T00:08:38.492Z,13.51
2022-10-07T00:11:08.239Z,13.58
2022-10-07T00:13:37.171Z,13.51
2022-10-07T00:16:07.039Z,13.67
2022-10-07T00:18:36.174Z,13.54
2022-10-07T00:21:09.784Z,13.50
2022-10-07T00:23:38.156Z,13.34
2022-10-07T00:26:08.798Z,13.48
2022-10-07T00:28:36.744Z,13.40
2022-10-07T00:31:08.217Z,13.32
2022-10-07T00:33:38.094Z,13.29
2022-10-07T00:36:17.182Z,13.11
2022-10-07T00:38:45.879Z,13.06
2022-10-07T00:41:23.865Z,13.01
2022-10-07T00:43:52.056Z,12.93
2022-10-07T00:46:22.788Z,13.01
2022-10-07T00:48:50.728Z,12.97
2022-10-07T00:51:18.646Z,12.96
2022-10-07T00:53:49.132Z,13.00
2022-10-07T00:56:17.047Z,13.01
2022-10-07T00:58:46.436Z,12.99
2022-10-07T01:01:14.355Z,12.98
2022-10-07T01:03:42.132Z,12.91
2022-10-07T01:06:10.105Z,13.10
2022-10-07T01:08:39.413Z,13.18
2022-10-07T01:11:21.684Z,13.01
2022-10-07T01:14:04.771Z,13.01
2022-10-07T01:17:10.826Z,12.91
2022-10-07T01:20:10.542Z,12.81
2022-10-07T01:22:38.038Z,12.84
2022-10-07T01:25:28.928Z,12.95
2022-10-07T01:28:01.215Z,12.83
2022-10-07T01:30:31.750Z,12.80
2022-10-07T01:33:04.290Z,12.70
2022-10-07T01:35:34.236Z,12.79
2022-10-07T01:38:05.578Z,12.76
2022-10-07T01:40:37.465Z,12.66
2022-10-07T01:43:05.408Z,12.68
2022-10-07T01:45:34.653Z,12.76
2022-10-07T01:48:02.484Z,12.65
2022-10-07T01:50:31.497Z,12.55
2022-10-07T01:53:11.818Z,12.63
2022-10-07T01:55:57.012Z,12.68
2022-10-07T01:58:32.252Z,12.72
2022-10-07T02:01:05.128Z,12.66
2022-10-07T02:04:07.594Z,12.78
2022-10-07T02:07:01.654Z,12.78
2022-10-07T02:09:50.922Z,12.75
2022-10-07T02:12:25.800Z,12.78
2022-10-07T02:15:05.026Z,12.79
2022-10-07T02:17:37.060Z,12.76
2022-10-07T02:20:06.059Z,12.71
2022-10-07T02:22:35.626Z,12.76
2022-10-07T02:25:03.376Z,12.85
2022-10-07T02:27:35.908Z,12.91
2022-10-07T02:30:12.609Z,12.88
2022-10-07T02:32:47.859Z,12.93
2022-10-07T02:35:33.553Z,12.86
2022-10-07T02:38:03.996Z,12.89
2022-10-07T02:40:36.502Z,13.05
2022-10-07T02:43:11.371Z,12.96
2022-10-07T02:45:42.636Z,12.98
2022-10-07T02:48:24.465Z,12.93
2022-10-07T02:50:53.130Z,12.90
2022-10-07T02:53:21.689Z,12.87
2022-10-07T02:55:50.725Z,12.80
2022-10-07T02:58:20.862Z,12.77
2022-10-07T03:00:51.858Z,12.78
2022-10-07T03:03:20.458Z,12.83
2022-10-07T03:05:48.964Z,12.75
2022-10-07T03:08:16.664Z,12.73
2022-10-07T03:10:44.325Z,12.74
2022-10-07T03:13:12.735Z,12.68
2022-10-07T03:15:42.510Z,12.68
2022-10-07T03:18:11.689Z,12.69
2022-10-07T03:20:39.515Z,12.59
2022-10-07T03:23:07.163Z,12.63
2022-10-07T03:25:35.633Z,12.65
2022-10-07T03:28:03.919Z,12.59
2022-10-07T03:30:31.830Z,12.57
2022-10-07T03:32:59.577Z,12.59
2022-10-07T03:35:27.671Z,12.66
2022-10-07T03:37:55.495Z,12.51
2022-10-07T03:40:23.103Z,12.52
2022-10-07T03:42:51.495Z,12.42
2022-10-07T03:45:19.110Z,12.36
2022-10-07T03:47:47.201Z,12.34
2022-10-07T03:50:16.554Z,12.31
2022-10-07T03:52:44.071Z,12.22
2022-10-07T03:55:11.729Z,12.28
2022-10-07T03:57:39.744Z,12.28
2022-10-07T04:00:07.828Z,12.31
2022-10-07T04:02:42.459Z,12.28
2022-10-07T04:05:11.133Z,12.26
2022-10-07T04:07:39.053Z,12.34
2022-10-07T04:10:06.983Z,12.37
2022-10-07T04:12:34.972Z,12.39
2022-10-07T04:15:02.956Z,12.32
2022-10-07T04:17:30.823Z,12.40
2022-10-07T04:19:59.165Z,12.34
2022-10-07T04:22:27.338Z,12.30
2022-10-07T04:24:54.888Z,12.32
2022-10-07T04:27:46.781Z,12.33
2022-10-07T04:30:11.525Z,12.51
2022-10-07T04:32:39.434Z,12.35
2022-10-07T04:35:07.850Z,12.39
2022-10-07T04:37:35.612Z,12.46
2022-10-07T04:40:04.002Z,12.36
2022-10-07T04:42:32.516Z,12.27
2022-10-07T04:45:00.359Z,12.30
2022-10-07T04:47:28.642Z,12.47
2022-10-07T04:49:56.621Z,12.36
2022-10-07T04:52:25.271Z,12.43
2022-10-07T04:54:53.957Z,12.36
2022-10-07T04:57:23.387Z,12.16
2022-10-07T04:59:52.658Z,12.12
2022-10-07T05:02:21.446Z,12.16
2022-10-07T05:04:49.133Z,12.12
2022-10-07T05:07:16.716Z,12.08
2022-10-07T05:09:44.730Z,12.02
2022-10-07T05:12:13.771Z,12.07
2022-10-07T05:14:41.360Z,12.03
2022-10-07T05:17:10.827Z,12.08
2022-10-07T05:19:38.600Z,12.06
2022-10-07T05:22:06.853Z,12.03
2022-10-07T05:24:34.790Z,12.11
2022-10-07T05:27:02.894Z,12.17
2022-10-07T05:29:30.487Z,12.05
2022-10-07T05:32:02.227Z,12.07
2022-10-07T05:34:33.144Z,12.11
2022-10-07T05:37:01.099Z,12.12
2022-10-07T05:39:29.203Z,12.20
2022-10-07T05:41:57.199Z,12.27
2022-10-07T05:44:25.354Z,12.22
2022-10-07T05:46:53.271Z,12.11
2022-10-07T05:49:21.023Z,12.13
2022-10-07T05:51:48.997Z,12.12
2022-10-07T05:54:17.767Z,12.25
2022-10-07T05:56:45.556Z,12.25
2022-10-07T05:59:17.047Z,12.34
2022-10-07T06:01:45.117Z,12.37
2022-10-07T06:04:13.474Z,12.45
2022-10-07T06:06:41.588Z,12.58
2022-10-07T06:09:10.894Z,12.65
2022-10-07T06:11:38.938Z,12.73
2022-10-07T06:14:07.453Z,12.68
2022-10-07T06:16:35.160Z,12.71
2022-10-07T06:19:03.183Z,12.73
2022-10-07T06:21:31.527Z,12.77
2022-10-07T06:23:59.360Z,12.90
2022-10-07T06:26:28.770Z,13.00
2022-10-07T06:28:56.576Z,13.09
2022-10-07T06:31:24.304Z,13.18
2022-10-07T06:33:53.027Z,13.27
2022-10-07T06:36:21.621Z,13.34
2022-10-07T06:38:53.842Z,13.38
2022-10-07T06:41:24.729Z,13.50
2022-10-07T06:44:00.295Z,13.63
2022-10-07T06:46:28.432Z,13.70
2022-10-07T06:48:56.397Z,13.79
2022-10-07T06:51:24.390Z,13.84
2022-10-07T06:53:54.696Z,13.86
2022-10-07T06:56:22.483Z,13.98
2022-10-07T06:58:50.329Z,14.17
2022-10-07T07:01:19.339Z,14.22
2022-10-07T07:03:47.081Z,14.28
2022-10-07T07:06:15.962Z,14.43
2022-10-07T07:08:44.057Z,14.53
2022-10-07T07:11:13.524Z,14.59
2022-10-07T07:13:43.910Z,14.70
2022-10-07T07:16:14.248Z,14.78
2022-10-07T07:18:42.022Z,14.98
2022-10-07T07:21:09.630Z,15.19
2022-10-07T07:23:37.530Z,15.28
2022-10-07T07:26:05.234Z,15.27
2022-10-07T07:28:33.082Z,15.50
2022-10-07T07:31:01.151Z,15.67
2022-10-07T07:33:29.271Z,15.85
2022-10-07T07:35:57.035Z,16.17
2022-10-07T07:38:25.652Z,16.37
2022-10-07T07:40:54.173Z,16.53
2022-10-07T07:43:21.802Z,16.52
2022-10-07T07:45:49.868Z,16.73
2022-10-07T07:48:17.772Z,16.82
2022-10-07T07:50:45.512Z,17.07
2022-10-07T07:53:13.769Z,17.08
2022-10-07T07:55:57.150Z,17.17
2022-10-07T07:58:26.016Z,17.35
2022-10-07T08:01:00.504Z,17.47
2022-10-07T08:03:29.536Z,17.70
2022-10-07T08:06:00.776Z,17.67
2022-10-07T08:08:29.783Z,17.84
2022-10-07T08:10:58.252Z,17.91
2022-10-07T08:13:25.891Z,17.85
2022-10-07T08:15:56.714Z,18.10
2022-10-07T08:18:24.502Z,18.16
2022-10-07T08:21:03.648Z,18.29
2022-10-07T08:23:32.209Z,18.35
2022-10-07T08:26:00.741Z,18.48
2022-10-07T08:28:28.539Z,18.48
2022-10-07T08:31:02.840Z,18.58
2022-10-07T08:33:35.320Z,18.74
2022-10-07T08:36:05.698Z,18.67
2022-10-07T08:38:38.334Z,18.68
2022-10-07T08:41:09.080Z,18.97
2022-10-07T08:43:39.744Z,18.89
2022-10-07T08:46:12.536Z,19.02
2022-10-07T08:48:42.418Z,18.99
2022-10-07T08:51:20.509Z,19.06
2022-10-07T08:53:55.419Z,19.07
2022-10-07T08:56:24.252Z,19.42
2022-10-07T08:59:07.147Z,19.21
2022-10-07T09:01:44.338Z,19.44
2022-10-07T09:04:20.875Z,19.40
2022-10-07T09:06:52.362Z,19.35
2022-10-07T09:09:23.987Z,19.59
2022-10-07T09:11:52.530Z,19.59
2022-10-07T09:14:34.625Z,19.85
2022-10-07T09:17:08.814Z,19.96
2022-10-07T09:19:44.651Z,20.01
2022-10-07T09:22:17.380Z,20.04
2022-10-07T09:24:47.058Z,20.21
2022-10-07T09:27:17.516Z,20.28
2022-10-07T09:29:45.305Z,20.52
2022-10-07T09:32:18.103Z,20.41
2022-10-07T09:34:46.434Z,20.39
2022-10-07T09:37:20.294Z,20.47
2022-10-07T09:39:50.357Z,20.53
2022-10-07T09:42:23.731Z,20.74
2022-10-07T09:44:53.955Z,20.71
2022-10-07T09:47:27.383Z,20.82
2022-10-07T09:49:58.110Z,20.78
2022-10-07T09:52:28.042Z,20.94
2022-10-07T09:55:17.526Z,21.10
2022-10-07T09:57:59.637Z,21.27
2022-10-07T10:00:28.430Z,21.40
2022-10-07T10:03:05.418Z,21.73
2022-10-07T10:05:33.096Z,21.73
2022-10-07T10:08:21.877Z,21.65
2022-10-07T10:10:57.937Z,21.65
2022-10-07T10:13:33.227Z,21.59
2022-10-07T10:16:02.980Z,21.60
2022-10-07T10:18:32.439Z,21.58
2022-10-07T10:21:34.226Z,21.88
2022-10-07T10:24:07.298Z,22.01
2022-10-07T10:27:09.663Z,21.98
2022-10-07T10:30:03.433Z,22.29
2022-10-07T10:33:00.238Z,22.14
2022-10-07T10:35:29.408Z,22.17
2022-10-07T10:38:35.518Z,22.11
2022-10-07T10:41:10.580Z,22.20
2022-10-07T10:43:40.844Z,22.46
2022-10-07T10:46:17.468Z,22.80
2022-10-07T10:49:10.216Z,22.41
2022-10-07T10:51:40.744Z,22.43
2022-10-07T10:54:38.822Z,22.89
2022-10-07T10:57:17.239Z,22.79
2022-10-07T11:00:13.258Z,22.79
2022-10-07T11:03:12.932Z,22.60
2022-10-07T11:05:40.640Z,23.01
2022-10-07T11:08:11.393Z,23.20
2022-10-07T11:10:47.391Z,23.18
2022-10-07T11:13:30.057Z,22.89
2022-10-07T11:16:20.412Z,23.05
2022-10-07T11:19:24.896Z,23.21
2022-10-07T11:21:53.728Z,23.24
2022-10-07T11:24:27.777Z,23.14
2022-10-07T11:27:06.709Z,23.47
2022-10-07T11:30:00.840Z,23.51
2022-10-07T11:32:34.181Z,23.03
2022-10-07T11:35:14.404Z,23.33
2022-10-07T11:37:47.934Z,23.24
2022-10-07T11:40:16.195Z,23.30
2022-10-07T11:42:48.110Z,23.60
2022-10-07T11:45:31.440Z,23.45
2022-10-07T11:48:12.781Z,23.56
2022-10-07T11:50:47.687Z,23.82
2022-10-07T11:53:20.586Z,23.62
2022-10-07T11:56:14.414Z,23.79
2022-10-07T11:58:42.814Z,24.17
2022-10-07T12:01:25.682Z,24.08
2022-10-07T12:04:14.895Z,24.07
2022-10-07T12:07:19.789Z,24.11
2022-10-07T12:10:00.239Z,23.91
2022-10-07T12:12:43.452Z,23.63
2022-10-07T12:15:33.048Z,23.32
2022-10-07T12:18:04.483Z,23.39
2022-10-07T12:20:50.801Z,23.50
2022-10-07T12:23:18.301Z,23.93
2022-10-07T12:25:46.192Z,23.69
2022-10-07T12:28:35.364Z,23.95
2022-10-07T12:31:23.274Z,23.60
2022-10-07T12:34:06.237Z,23.65
2022-10-07T12:36:34.322Z,23.60
2022-10-07T12:39:02.379Z,23.68
2022-10-07T12:41:33.624Z,23.64
2022-10-07T12:44:19.899Z,23.53
2022-10-07T12:46:51.730Z,23.52
2022-10-07T12:49:22.512Z,23.75
2022-10-07T12:51:52.656Z,23.31
2022-10-07T12:54:41.364Z,23.10
2022-10-07T12:57:13.903Z,23.37
2022-10-07T12:59:49.507Z,23.47
2022-10-07T13:02:32.606Z,23.14
2022-10-07T13:05:09.741Z,23.00
2022-10-07T13:08:15.015Z,22.79
2022-10-07T13:11:01.957Z,22.95
2022-10-07T13:13:51.258Z,22.87
2022-10-07T13:16:47.196Z,23.04
2022-10-07T13:19:19.614Z,22.81
2022-10-07T13:22:13.643Z,22.79
2022-10-07T13:24:55.397Z,22.78
2022-10-07T13:27:28.915Z,22.51
2022-10-07T13:29:59.318Z,22.14
2022-10-07T13:32:33.092Z,22.55
2022-10-07T13:35:23.468Z,22.76
2022-10-07T13:37:54.390Z,22.70
2022-10-07T13:40:24.710Z,22.61
2022-10-07T13:43:13.687Z,22.63
2022-10-07T13:45:42.916Z,22.46
2022-10-07T13:48:19.201Z,22.46
2022-10-07T13:50:47.119Z,22.20
2022-10-07T13:53:21.335Z,22.53
2022-10-07T13:55:49.037Z,22.28
2022-10-07T13:58:17.956Z,22.23
2022-10-07T14:00:47.469Z,22.08
2022-10-07T14:03:16.909Z,21.72
2022-10-07T14:05:52.629Z,21.93
2022-10-07T14:08:25.598Z,22.35
2022-10-07T14:11:09.963Z,22.25
2022-10-07T14:13:38.007Z,22.30
2022-10-07T14:16:05.786Z,21.73
2022-10-07T14:18:33.450Z,21.97
2022-10-07T14:21:11.673Z,21.83
2022-10-07T14:23:39.318Z,21.86
2022-10-07T14:26:08.232Z,21.86
2022-10-07T14:28:39.907Z,21.91
2022-10-07T14:31:07.793Z,21.86
2022-10-07T14:33:44.561Z,21.94
2022-10-07T14:36:20.113Z,21.63
2022-10-07T14:38:49.675Z,21.76
2022-10-07T14:41:20.711Z,21.67
2022-10-07T14:43:49.772Z,21.48
2022-10-07T14:46:23.381Z,21.47
2022-10-07T14:48:54.321Z,21.19
2022-10-07T14:51:25.167Z,21.56
2022-10-07T14:54:01.039Z,21.37
2022-10-07T14:56:33.674Z,21.26
2022-10-07T14:59:01.487Z,21.20
2022-10-07T15:01:29.418Z,21.28
2022-10-07T15:04:02.709Z,21.10
2022-10-07T15:06:30.783Z,20.82
2022-10-07T15:08:58.399Z,20.96
2022-10-07T15:11:26.061Z,20.82
2022-10-07T15:13:54.041Z,20.61
2022-10-07T15:16:23.881Z,20.58
2022-10-07T15:18:53.046Z,20.32
2022-10-07T15:21:22.020Z,20.50
2022-10-07T15:23:51.169Z,20.16
2022-10-07T15:26:19.330Z,20.35
2022-10-07T15:28:52.877Z,20.25
2022-10-07T15:31:21.850Z,20.04
2022-10-07T15:33:49.796Z,20.09
2022-10-07T15:36:17.385Z,19.97
2022-10-07T15:38:45.074Z,19.84
2022-10-07T15:41:29.300Z,19.67
2022-10-07T15:43:58.369Z,19.43
2022-10-07T15:46:26.680Z,19.43
2022-10-07T15:48:55.798Z,19.35
2022-10-07T15:51:24.202Z,19.22
2022-10-07T15:53:52.932Z,19.08
2022-10-07T15:56:20.981Z,19.16
2022-10-07T15:58:48.762Z,18.80
2022-10-07T16:01:16.717Z,18.79
2022-10-07T16:03:46.680Z,18.75
2022-10-07T16:06:20.120Z,18.61
2022-10-07T16:08:49.508Z,18.49
2022-10-07T16:11:17.304Z,18.38
2022-10-07T16:13:46.055Z,18.25
2022-10-07T16:16:19.326Z,18.16
2022-10-07T16:18:48.879Z,18.03
2022-10-07T16:21:18.007Z,17.96
2022-10-07T16:23:46.504Z,17.77
2022-10-07T16:26:23.252Z,17.70
2022-10-07T16:28:52.193Z,17.57
2022-10-07T16:31:19.857Z,17.50
2022-10-07T16:33:52.231Z,17.38
2022-10-07T16:36:22.921Z,17.43
2022-10-07T16:38:51.710Z,17.29
2022-10-07T16:41:21.352Z,17.17
2022-10-07T16:43:49.200Z,17.09
2022-10-07T16:46:19.280Z,17.10
2022-10-07T16:48:48.773Z,17.05
2022-10-07T16:51:17.966Z,17.00
2022-10-07T16:53:47.356Z,16.97
2022-10-07T16:56:19.172Z,17.04
2022-10-07T16:58:47.548Z,16.78
2022-10-07T17:01:16.943Z,16.65
2022-10-07T17:03:45.392Z,16.70
2022-10-07T17:06:14.871Z,16.62
2022-10-07T17:08:46.271Z,16.50
2022-10-07T17:11:18.935Z,16.46
2022-10-07T17:13:46.609Z,16.34
2022-10-07T17:16:14.591Z,16.42
2022-10-07T17:18:42.593Z,16.26
2022-10-07T17:21:10.264Z,16.22
2022-10-07T17:23:37.879Z,16.26
2022-10-07T17:26:06.353Z,16.18
2022-10-07T17:28:35.128Z,16.30
2022-10-07T17:31:07.729Z,16.21
2022-10-07T17:33:35.824Z,16.13
2022-10-07T17:36:04.780Z,16.13
2022-10-07T17:38:43.699Z,16.09
2022-10-07T17:41:26.403Z,16.07
2022-10-07T17:43:55.936Z,15.97
2022-10-07T17:46:26.110Z,15.90
2022-10-07T17:48:55.508Z,15.93
2022-10-07T17:51:24.877Z,15.83
2022-10-07T17:53:52.862Z,15.78
2022-10-07T17:56:20.549Z,15.81
2022-10-07T17:58:49.533Z,15.79
2022-10-07T18:01:24.288Z,15.74
2022-10-07T18:03:55.039Z,15.52
2022-10-07T18:06:22.891Z,15.57
2022-10-07T18:08:50.804Z,15.56
2022-10-07T18:11:18.696Z,15.62
2022-10-07T18:13:46.417Z,15.49
2022-10-07T18:16:15.028Z,15.53
2022-10-07T18:18:43.737Z,15.53
2022-10-07T18:21:12.020Z,15.49
2022-10-07T18:23:40.139Z,15.46
2022-10-07T18:26:10.855Z,15.46
2022-10-07T18:28:38.597Z,15.41
2022-10-07T18:31:11.589Z,15.48
2022-10-07T18:33:40.337Z,15.43
2022-10-07T18:36:10.476Z,15.38
2022-10-07T18:38:40.283Z,15.30
2022-10-07T18:41:10.795Z,15.42
2022-10-07T18:43:38.463Z,15.42
2022-10-07T18:46:17.318Z,15.41
2022-10-07T18:48:48.088Z,15.46
2022-10-07T18:51:17.587Z,15.50
2022-10-07T18:53:46.500Z,15.54
2022-10-07T18:56:19.956Z,15.43
2022-10-07T18:58:49.963Z,15.39
2022-10-07T19:01:22.934Z,15.40
2022-10-07T19:03:58.559Z,15.35
2022-10-07T19:06:26.539Z,15.26
2022-10-07T19:08:59.507Z,15.18
2022-10-07T19:11:27.528Z,15.26
2022-10-07T19:13:57.079Z,15.19
2022-10-07T19:16:24.670Z,15.16
2022-10-07T19:18:54.333Z,15.11
2022-10-07T19:21:23.191Z,15.16
2022-10-07T19:23:53.014Z,15.06
2022-10-07T19:26:23.649Z,15.16
2022-10-07T19:28:53.542Z,15.11
2022-10-07T19:31:23.599Z,15.01
2022-10-07T19:33:55.907Z,14.90
2022-10-07T19:36:24.187Z,14.97
2022-10-07T19:38:52.865Z,15.02
2022-10-07T19:41:23.699Z,14.97
2022-10-07T19:43:51.979Z,15.03
2022-10-07T19:46:22.347Z,14.95
2022-10-07T19:48:50.134Z,14.92
2022-10-07T19:51:19.482Z,14.90
2022-10-07T19:53:47.798Z,14.83
2022-10-07T19:56:24.009Z,14.75
2022-10-07T19:59:00.091Z,14.68
2022-10-07T20:01:31.776Z,14.67
2022-10-07T20:04:01.728Z,14.66
2022-10-07T20:06:29.836Z,14.57
2022-10-07T20:08:57.747Z,14.55
2022-10-07T20:11:26.134Z,14.53
2022-10-07T20:13:53.741Z,14.55
2022-10-07T20:16:24.384Z,14.56
2022-10-07T20:18:57.853Z,14.54
2022-10-07T20:21:25.423Z,14.39
2022-10-07T20:23:54.350Z,14.29
2022-10-07T20:26:26.756Z,14.35
2022-10-07T20:28:56.940Z,14.30
2022-10-07T20:31:28.042Z,14.24
2022-10-07T20:33:57.262Z,14.26
2022-10-07T20:36:29.633Z,14.17
2022-10-07T20:39:19.442Z,14.17
2022-10-07T20:41:48.977Z,14.14
2022-10-07T20:44:17.379Z,14.11
2022-10-07T20:46:45.002Z,14.04
2022-10-07T20:49:13.376Z,14.03
2022-10-07T20:51:41.339Z,13.92
2022-10-07T20:54:08.992Z,13.99
2022-10-07T20:56:36.668Z,13.93
2022-10-07T20:59:04.640Z,13.89
2022-10-07T21:01:32.404Z,13.80
2022-10-07T21:04:00.086Z,13.82
2022-10-07T21:06:27.978Z,13.81
2022-10-07T21:08:55.557Z,13.76
2022-10-07T21:11:23.996Z,13.68
2022-10-07T21:13:51.964Z,13.64
2022-10-07T21:16:19.629Z,13.67
2022-10-07T21:18:47.695Z,13.70
2022-10-07T21:21:16.018Z,13.70
2022-10-07T21:23:44.369Z,13.63
2022-10-07T21:26:12.606Z,13.60
2022-10-07T21:28:40.514Z,13.66
2022-10-07T21:31:11.145Z,13.66
2022-10-07T21:33:39.303Z,13.63
2022-10-07T21:36:10.467Z,13.57
2022-10-07T21:38:38.544Z,13.50
2022-10-07T21:41:18.628Z,13.53
2022-10-07T21:43:55.032Z,13.52
2022-10-07T21:46:23.704Z,13.56
2022-10-07T21:48:52.000Z,13.49
2022-10-07T21:51:19.668Z,13.50
2022-10-07T21:53:51.260Z,13.39
2022-10-07T21:56:19.934Z,13.36
2022-10-07T21:58:47.919Z,13.38
2022-10-07T22:01:16.910Z,13.32
2022-10-07T22:03:45.382Z,13.35
2022-10-07T22:06:17.096Z,13.36
2022-10-07T22:08:46.094Z,13.39
2022-10-07T22:11:19.369Z,13.35
2022-10-07T22:13:49.431Z,13.37
2022-10-07T22:16:18.694Z,13.36
2022-10-07T22:18:48.709Z,13.40
2022-10-07T22:21:21.158Z,13.36
2022-10-07T22:23:59.677Z,13.30
2022-10-07T22:26:30.394Z,13.28
2022-10-07T22:28:58.351Z,13.44
2022-10-07T22:31:26.550Z,13.46
2022-10-07T22:33:59.063Z,13.40
2022-10-07T22:36:26.963Z,13.42
2022-10-07T22:38:55.953Z,13.41
2022-10-07T22:41:23.915Z,13.36
2022-10-07T22:43:52.581Z,13.22
2022-10-07T22:46:23.270Z,13.16
2022-10-07T22:48:51.188Z,13.25
2022-10-07T22:51:18.790Z,13.06
2022-10-07T22:53:51.779Z,13.14
2022-10-07T22:56:19.590Z,13.14
2022-10-07T22:58:53.160Z,13.14
2022-10-07T23:01:21.175Z,13.06
2022-10-07T23:03:49.330Z,12.96
2022-10-07T23:06:18.505Z,13.00
2022-10-07T23:08:47.555Z,13.10
2022-10-07T23:11:19.131Z,13.14
2022-10-07T23:13:46.766Z,13.03
2022-10-07T23:16:16.201Z,13.04
2022-10-07T23:18:45.132Z,12.95
2022-10-07T23:21:14.678Z,13.02
2022-10-07T23:23:43.815Z,13.18
2022-10-07T23:26:19.616Z,13.07
2022-10-07T23:28:48.615Z,13.01
2022-10-07T23:31:19.198Z,13.06
2022-10-07T23:33:49.383Z,12.86
2022-10-07T23:36:18.276Z,12.79
2022-10-07T23:38:46.511Z,12.86
2022-10-07T23:41:16.652Z,12.80
2022-10-07T23:43:44.509Z,12.75
2022-10-07T23:46:12.214Z,12.89
2022-10-07T23:48:43.069Z,12.73
2022-10-07T23:51:11.541Z,12.62
2022-10-07T23:53:39.283Z,12.71
2022-10-07T23:56:07.395Z,12.50
2022-10-07T23:58:36.056Z,12.58
